Airfield :
LOGIN :

Register | Disclaimer

   EN    FR    IT 

 










Legend :    VFR   Marginal VFR   IFR   Intensive IFR   Very Intensive IFR
Visi :
Ceiling :
>= 8 km
>= 3000ft
5 to 8 km
1000 to 3000 ft
1500m to 5 km
500 to 1000 ft
800 to 1500m
200 to 500 ft
< 800m
< 200 ft
Symbols :   Thunderstorms  Fog  Heavy snow  Heavy precipitations  Wind > 20 kt
SIGMETs :     Misc.  Thunderstorms  Icing  Turbulence  Mountain Waves  Volcanic Ashes







- Airport Elevation : 489 ft
- IATA code : GDN


EPGD - Gdansk

CURRENT METAR :
  • 171630Z 15003KT 3200 BR FEW005 OVC029 M03/M04 Q1023 R11/290095

EXPIRED METARs :
  • 171600Z 14004KT 110V180 3200 BR OVC029 M03/M03 Q1022 R11/290095
  • 171530Z 15005KT 120V180 3100 BR FEW006 OVC028 M02/M03 Q1022 R11/290095
  • 171500Z 13005KT 3500 BR OVC027 M03/M04 Q1022 R11/290095
  • 171430Z 12005KT 4000 BR FEW006 OVC026 M03/M04 Q1021 R11/290095
  • 171400Z 14004KT 120V180 4500 BR FEW006 OVC025 M02/M03 Q1021 R11/290095

TAF TAF EPGD
Valid from the 17 at 12:00 until the 18 at 12:00 UTC


171130Z 1712/1812 15005KT 4500 BR OVC025
TEMPO 1712/1715 6000
TEMPO 1718/1808 2000 BR
PROB40 1800/1808 BKN008
BECMG 1808/1810 BKN012
No reported NOTAMs for that airfield.



MET'MAP, your aeronautical weather chart ! - Copyright ORBIFLY December 2007 - Disclaimer

ORBIFLY MET'MAP TEAM :

Programming & Development : Alexandra Zaïnal
Concept & Development : Baudouin d'Aumeries
Co-Development & Prog : Marc-Olivier Méhu
Technical & hardware support : Manuel Goepfert

Contact : metmap@orbifly.com




SOURCES & CREDITS :

   NOAA